Strona główna
METAR-TAF:

METAR-TAF

Lotnisko :

Capo Mele

Andora, Włochy

Szerokość geograficzna: 43-57N, Długość geograficzna: 008-10E, wysokość: 220 m

Aktualna obserwacja pogody

Raport powstał 50 minut temu, godzina 06:55 UTC
Wiatr 18 kt od północ
Temperatura 6°C
Wilgotność 45%
Ciśnienie 1033 hPa
Widzialność 10 km lub więcej
Brak chmur poniżej 1500 m i brak chmur cumulonimbus

METAR: LIMU 200655Z 01018KT CAVOK 06/M05 Q1033 RMK BKN SCT070 BKN100 QUK 3 QUL 1 SE VIS MAR 25 KM VIS MIN 9999

czas: 08:45 (07:45 UTC)


TAF: brakujący

Obserwacja i prognoza pogody dla ponad 4000 lotnisk (raport METAR i TAF).

Dostępne stacje oznaczono żółtymi i czerwonymi punktami na mapie.

Najedź kursorem aby zobaczyć nazwę stacji.

Kliknij aby zobaczyć obserwacje i prognozy pogody.

Aby zmienić mapę: kliknij na zielony przycisk z czarnym krzyżykiem, aby powiększyć; na zielony przycisk z myślnikiem, aby pomniejszyć; na zielone strzałki, aby przejść do map sąsiednich.


METAR-TAF: